Time;durP1;ratioP1;P1;durP2;ratioP2;P2;SDS_P1;SDS_P2;PMS_P1;PMS_P2;Temp;Humidity;BMP_temperature;BMP_pressure;BME280_temperature;BME280_humidity;BME280_pressure;Samples;Min_cycle;Max_cycle;Signal;HPM_P1;HPM_P2
2023/01/09 00:00:18;;;;;;;1.63;0.35;;;9.40;99.90;;;;;;5010814;28;20100;-75
2023/01/09 00:02:44;;;;;;;2.13;0.43;;;9.40;99.90;;;;;;5004797;28;20482;-75
2023/01/09 00:05:12;;;;;;;1.33;0.35;;;9.30;99.90;;;;;;5006119;28;20029;-75
2023/01/09 00:07:38;;;;;;;1.58;0.30;;;9.40;99.90;;;;;;5013000;28;20480;-75
2023/01/09 00:10:05;;;;;;;0.80;0.40;;;9.30;99.90;;;;;;5005293;28;20038;-75
2023/01/09 00:12:31;;;;;;;1.80;0.50;;;9.30;99.90;;;;;;5008667;28;20030;-75
2023/01/09 00:14:56;;;;;;;2.00;0.52;;;9.20;99.90;;;;;;5008040;28;20036;-75
2023/01/09 00:17:22;;;;;;;1.13;0.55;;;9.30;99.90;;;;;;5005441;28;20360;-75
2023/01/09 00:19:48;;;;;;;2.05;0.70;;;9.20;99.90;;;;;;4994598;28;20065;-75
2023/01/09 00:22:13;;;;;;;1.23;0.70;;;9.20;99.90;;;;;;5011141;28;20438;-75
2023/01/09 00:24:39;;;;;;;1.58;0.98;;;9.20;99.90;;;;;;5011355;28;20034;-75
2023/01/09 00:27:05;;;;;;;4.40;1.08;;;9.20;99.90;;;;;;5000618;28;20442;-75
2023/01/09 00:29:31;;;;;;;2.30;0.73;;;9.20;99.90;;;;;;5005494;28;20473;-74
2023/01/09 00:31:56;;;;;;;4.43;0.90;;;9.10;99.90;;;;;;5002894;28;20474;-75
2023/01/09 00:34:23;;;;;;;2.75;0.85;;;9.10;99.90;;;;;;5010220;28;20022;-75
2023/01/09 00:36:53;;;;;;;3.80;0.80;;;9.00;99.90;;;;;;5005605;28;20106;-74
2023/01/09 00:39:20;;;;;;;2.05;0.50;;;9.00;99.90;;;;;;5004181;28;20474;-75
2023/01/09 00:41:49;;;;;;;2.90;0.73;;;9.00;99.90;;;;;;5003955;28;20030;-75
2023/01/09 00:44:19;;;;;;;3.03;0.50;;;9.00;99.90;;;;;;5006457;28;20034;-75
2023/01/09 00:46:49;;;;;;;2.83;0.80;;;8.90;99.90;;;;;;4995510;28;20489;-75
2023/01/09 00:49:16;;;;;;;1.20;0.70;;;8.90;99.90;;;;;;5001347;28;20476;-75
2023/01/09 00:51:42;;;;;;;1.65;0.70;;;8.90;99.90;;;;;;5005896;28;20118;-74
2023/01/09 00:54:10;;;;;;;5.38;1.08;;;8.90;99.90;;;;;;5005093;28;20041;-75
2023/01/09 00:56:36;;;;;;;2.65;0.73;;;8.80;99.90;;;;;;5005240;28;20014;-74
2023/01/09 00:59:02;;;;;;;2.53;0.82;;;8.90;99.90;;;;;;5001339;28;20467;-75
2023/01/09 01:01:28;;;;;;;3.42;1.00;;;8.80;99.90;;;;;;5006158;28;20023;-75
2023/01/09 01:03:54;;;;;;;4.30;1.30;;;8.80;99.90;;;;;;5001859;28;20093;-74
2023/01/09 01:09:05;;;;;;;4.32;1.15;;;8.80;99.90;;;;;;5009077;28;20037;-75
2023/01/09 01:11:32;;;;;;;1.75;1.20;;;8.80;99.90;;;;;;5003248;28;20034;-76
2023/01/09 01:13:58;;;;;;;5.45;0.88;;;8.80;99.90;;;;;;5002578;28;20038;-75
2023/01/09 01:16:24;;;;;;;2.58;1.00;;;8.70;99.90;;;;;;5005462;28;20026;-75
2023/01/09 01:18:49;;;;;;;3.30;0.80;;;8.70;99.90;;;;;;5008601;28;20037;-75
2023/01/09 01:21:16;;;;;;;2.88;1.25;;;8.60;99.90;;;;;;5006195;28;20053;-75
2023/01/09 01:23:42;;;;;;;2.40;1.00;;;8.70;99.90;;;;;;5006200;28;20033;-75
2023/01/09 01:26:14;;;;;;;2.22;0.80;;;8.60;99.90;;;;;;5005061;28;20033;-75
2023/01/09 01:28:40;;;;;;;2.00;1.00;;;8.60;99.90;;;;;;5000831;28;20133;-75
2023/01/09 01:31:06;;;;;;;2.28;0.85;;;8.60;99.90;;;;;;5008957;28;20437;-75
2023/01/09 01:33:32;;;;;;;2.25;1.20;;;8.50;99.90;;;;;;5007476;28;20479;-75
2023/01/09 01:36:05;;;;;;;2.88;1.13;;;8.60;99.90;;;;;;5004983;28;20037;-75
2023/01/09 01:38:31;;;;;;;5.00;1.20;;;8.50;99.90;;;;;;4987612;28;20535;-75
2023/01/09 01:40:57;;;;;;;7.53;1.85;;;8.50;99.90;;;;;;5004519;28;20026;-75
2023/01/09 01:43:23;;;;;;;3.92;1.45;;;8.50;99.90;;;;;;5003975;28;20094;-75
2023/01/09 01:45:49;;;;;;;7.53;1.88;;;8.50;99.90;;;;;;5003528;28;20041;-75
2023/01/09 01:48:19;;;;;;;6.68;1.67;;;8.50;99.90;;;;;;5003457;28;20030;-75
2023/01/09 01:50:58;;;;;;;3.20;1.48;;;8.50;99.90;;;;;;4994956;28;20428;-75
2023/01/09 01:53:37;;;;;;;8.70;2.55;;;8.40;99.90;;;;;;5006886;28;20121;-75
2023/01/09 01:56:29;;;;;;;3.30;1.50;;;8.30;99.90;;;;;;5002893;28;20042;-75
2023/01/09 01:59:05;;;;;;;4.50;1.85;;;8.30;99.90;;;;;;5001395;28;20044;-75
2023/01/09 02:01:32;;;;;;;4.75;1.45;;;8.30;99.90;;;;;;4991987;28;20029;-76
2023/01/09 02:04:00;;;;;;;3.05;1.58;;;8.20;99.90;;;;;;5001891;28;20030;-75
2023/01/09 02:06:28;;;;;;;2.85;1.25;;;8.20;99.90;;;;;;5000362;28;20022;-75
2023/01/09 02:08:54;;;;;;;2.53;1.50;;;8.20;99.90;;;;;;5005081;28;20117;-75
2023/01/09 02:11:20;;;;;;;4.47;1.30;;;8.20;99.90;;;;;;5006072;28;20034;-75
2023/01/09 02:13:47;;;;;;;4.22;1.60;;;8.20;99.90;;;;;;4994372;28;20021;-76
2023/01/09 02:16:31;;;;;;;4.07;1.75;;;8.10;99.90;;;;;;5008493;28;20109;-76
2023/01/09 02:19:25;;;;;;;5.20;1.80;;;8.10;99.90;;;;;;5006038;28;20025;-75
2023/01/09 02:22:28;;;;;;;2.92;1.48;;;8.10;99.90;;;;;;5004095;28;20026;-75
2023/01/09 02:25:19;;;;;;;3.45;1.65;;;8.00;99.90;;;;;;5006792;28;20183;-75
2023/01/09 02:28:06;;;;;;;6.07;1.90;;;8.10;99.90;;;;;;5002798;28;20064;-75
2023/01/09 02:30:55;;;;;;;7.03;1.52;;;8.00;99.90;;;;;;5004710;28;20088;-75
2023/01/09 02:33:42;;;;;;;4.43;1.92;;;8.10;99.90;;;;;;5007421;28;20422;-75
2023/01/09 02:36:23;;;;;;;3.47;1.15;;;8.10;99.90;;;;;;4999897;28;20073;-75
2023/01/09 02:38:51;;;;;;;2.75;1.70;;;8.00;99.90;;;;;;4999573;28;20516;-75
2023/01/09 02:41:27;;;;;;;3.63;1.95;;;8.00;99.90;;;;;;5000376;28;20081;-75
2023/01/09 02:44:15;;;;;;;4.72;2.10;;;7.90;99.90;;;;;;5005541;28;20120;-75
2023/01/09 02:46:41;;;;;;;6.32;2.03;;;7.90;99.90;;;;;;5003591;28;20034;-75
2023/01/09 02:49:08;;;;;;;4.35;2.10;;;7.90;99.90;;;;;;5000977;28;20074;-75
2023/01/09 02:51:37;;;;;;;3.53;1.77;;;7.90;99.90;;;;;;5010295;28;20026;-75
2023/01/09 02:54:33;;;;;;;2.97;1.73;;;7.90;99.90;;;;;;5012098;28;20057;-75
2023/01/09 02:57:17;;;;;;;8.82;2.10;;;7.90;99.90;;;;;;5001116;28;20034;-75
2023/01/09 02:59:54;;;;;;;4.75;1.77;;;7.90;99.90;;;;;;5008704;28;20022;-75
2023/01/09 03:02:40;;;;;;;3.72;1.45;;;7.80;99.90;;;;;;5004349;28;20483;-75
2023/01/09 03:05:29;;;;;;;6.57;1.85;;;7.80;99.90;;;;;;4999371;28;20398;-75
2023/01/09 03:08:05;;;;;;;3.55;1.75;;;7.70;99.90;;;;;;5002905;28;20037;-75
2023/01/09 03:10:53;;;;;;;5.03;1.45;;;7.70;99.90;;;;;;4999768;28;20398;-75
2023/01/09 03:13:23;;;;;;;5.35;1.40;;;7.70;99.90;;;;;;5005146;28;20030;-75
2023/01/09 03:15:52;;;;;;;4.47;1.40;;;7.70;99.90;;;;;;5006234;28;20038;-75
2023/01/09 03:18:21;;;;;;;3.47;1.80;;;7.60;99.90;;;;;;5001466;28;20065;-75
2023/01/09 03:20:48;;;;;;;5.75;1.60;;;7.50;99.90;;;;;;5010143;28;20432;-75
2023/01/09 03:23:14;;;;;;;3.05;1.30;;;7.60;99.90;;;;;;5006162;28;20106;-75
2023/01/09 03:25:40;;;;;;;4.57;1.30;;;7.40;99.90;;;;;;5011103;28;20061;-74
2023/01/09 03:28:09;;;;;;;7.32;1.95;;;7.60;99.90;;;;;;5008582;28;20019;-75
2023/01/09 03:30:36;;;;;;;6.95;1.67;;;7.60;99.90;;;;;;5005172;28;20060;-75
2023/01/09 03:33:01;;;;;;;6.95;1.88;;;7.60;99.90;;;;;;5012699;28;20036;-75
2023/01/09 03:35:27;;;;;;;3.15;1.70;;;7.60;99.90;;;;;;5005008;28;20038;-75
2023/01/09 03:37:53;;;;;;;7.43;1.80;;;7.50;99.90;;;;;;4999246;28;20027;-75
2023/01/09 03:40:20;;;;;;;9.07;1.75;;;7.60;99.90;;;;;;5010951;28;20420;-75
2023/01/09 03:42:46;;;;;;;4.35;1.67;;;7.50;99.90;;;;;;5006543;28;20101;-75
2023/01/09 03:45:12;;;;;;;7.88;1.52;;;7.60;99.90;;;;;;5011008;28;20031;-75
2023/01/09 03:47:38;;;;;;;7.00;1.70;;;7.60;99.90;;;;;;5004907;28;20049;-75
2023/01/09 03:50:04;;;;;;;8.95;1.65;;;7.60;99.90;;;;;;5007180;28;20113;-75
2023/01/09 03:52:30;;;;;;;7.63;1.83;;;7.50;99.90;;;;;;5005085;28;20022;-75
2023/01/09 03:54:55;;;;;;;4.82;1.63;;;7.50;99.90;;;;;;5003807;28;20030;-75
2023/01/09 03:57:22;;;;;;;5.97;1.60;;;7.50;99.90;;;;;;4981827;28;21112;-75
2023/01/09 03:59:48;;;;;;;5.70;1.90;;;7.50;99.90;;;;;;5013375;28;20022;-75
2023/01/09 04:02:14;;;;;;;4.28;1.40;;;7.60;99.90;;;;;;5007635;28;20030;-74
2023/01/09 04:04:40;;;;;;;7.38;1.88;;;7.60;99.90;;;;;;5000908;28;20121;-74
2023/01/09 04:07:05;;;;;;;6.55;1.40;;;7.60;99.90;;;;;;5006496;28;20462;-75
2023/01/09 04:09:31;;;;;;;7.63;1.73;;;7.60;99.90;;;;;;5009433;28;20386;-75
2023/01/09 04:11:56;;;;;;;7.20;1.90;;;7.70;99.90;;;;;;5005973;28;20088;-75
2023/01/09 04:14:22;;;;;;;5.57;1.33;;;7.60;99.90;;;;;;5013277;28;20030;-75
2023/01/09 04:16:48;;;;;;;8.15;1.65;;;7.70;99.90;;;;;;5007353;28;20026;-75
2023/01/09 04:19:13;;;;;;;8.13;1.95;;;7.70;99.90;;;;;;5006185;28;20116;-75
2023/01/09 04:21:39;;;;;;;5.70;1.52;;;7.70;99.90;;;;;;5005896;28;20080;-75
2023/01/09 04:24:05;;;;;;;6.25;1.23;;;7.80;99.90;;;;;;5008581;28;20756;-75
2023/01/09 04:26:30;;;;;;;7.68;1.52;;;7.80;99.90;;;;;;5010198;28;20033;-75
2023/01/09 04:28:56;;;;;;;6.30;1.40;;;7.80;99.90;;;;;;4999444;28;20038;-75
2023/01/09 04:31:21;;;;;;;6.65;1.30;;;7.80;99.90;;;;;;5006758;28;20512;-75
2023/01/09 04:33:47;;;;;;;10.95;1.80;;;7.80;99.90;;;;;;5007450;28;20030;-75
2023/01/09 04:36:13;;;;;;;7.72;1.45;;;7.90;99.90;;;;;;5000124;28;20026;-75
2023/01/09 04:38:38;;;;;;;8.45;1.65;;;7.90;99.90;;;;;;5003541;28;20022;-75
2023/01/09 04:41:04;;;;;;;7.32;2.00;;;8.00;99.90;;;;;;5008106;28;20445;-75
2023/01/09 04:43:30;;;;;;;6.53;1.40;;;7.90;99.90;;;;;;5003349;28;20319;-75
2023/01/09 04:45:55;;;;;;;6.15;1.30;;;7.90;99.90;;;;;;5005664;28;20391;-75
2023/01/09 04:48:21;;;;;;;10.27;1.20;;;7.90;99.90;;;;;;4985605;28;20517;-75
2023/01/09 04:50:46;;;;;;;6.53;1.10;;;8.00;99.90;;;;;;5008867;28;20026;-75
2023/01/09 04:53:12;;;;;;;3.03;1.20;;;8.10;99.90;;;;;;5006352;28;20033;-75
2023/01/09 04:55:40;;;;;;;4.38;1.40;;;8.00;99.90;;;;;;5009427;28;20037;-75
2023/01/09 04:58:06;;;;;;;7.68;1.30;;;8.00;99.90;;;;;;4985887;28;20427;-75
2023/01/09 05:00:31;;;;;;;9.20;1.48;;;8.00;99.90;;;;;;5007323;28;20053;-75
2023/01/09 05:02:57;;;;;;;7.88;1.55;;;8.00;99.90;;;;;;5005503;28;20469;-75
2023/01/09 05:05:23;;;;;;;7.82;1.33;;;8.10;99.90;;;;;;5005111;28;20026;-75
2023/01/09 05:07:49;;;;;;;8.30;1.48;;;8.10;99.90;;;;;;5004988;28;20477;-75
2023/01/09 05:10:14;;;;;;;7.20;1.67;;;8.10;99.90;;;;;;5003372;28;20070;-75
2023/01/09 05:12:40;;;;;;;9.27;1.40;;;8.10;99.90;;;;;;5004240;28;20056;-75
2023/01/09 05:15:07;;;;;;;6.43;1.52;;;8.20;99.90;;;;;;4997701;28;20034;-75
2023/01/09 05:17:33;;;;;;;8.80;1.30;;;8.20;99.90;;;;;;5009989;28;20471;-75
2023/01/09 05:20:02;;;;;;;4.65;1.25;;;8.30;99.90;;;;;;5003017;28;20033;-75
2023/01/09 05:22:27;;;;;;;7.85;1.40;;;8.20;99.90;;;;;;5002248;28;20093;-75
2023/01/09 05:24:53;;;;;;;5.90;1.50;;;8.20;99.90;;;;;;5011414;28;20112;-75
2023/01/09 05:27:19;;;;;;;3.80;1.50;;;8.20;99.90;;;;;;5005499;28;20032;-74
2023/01/09 05:29:44;;;;;;;5.95;1.73;;;8.20;99.90;;;;;;4990705;28;20040;-75
2023/01/09 05:32:10;;;;;;;5.97;1.85;;;8.20;99.90;;;;;;5008884;28;20541;-75
2023/01/09 05:34:35;;;;;;;8.70;1.90;;;8.20;99.90;;;;;;5005025;28;20108;-75
2023/01/09 05:37:01;;;;;;;7.53;1.60;;;8.30;99.90;;;;;;5005533;28;20032;-75
2023/01/09 05:39:27;;;;;;;8.27;1.65;;;8.30;99.90;;;;;;5004274;28;20034;-74
2023/01/09 05:41:52;;;;;;;7.95;1.52;;;8.30;99.90;;;;;;4999903;28;20093;-75
2023/01/09 05:44:18;;;;;;;4.70;1.38;;;8.30;99.90;;;;;;5002389;28;20386;-75
2023/01/09 05:46:44;;;;;;;6.25;1.35;;;8.30;99.90;;;;;;5005681;28;20492;-74
2023/01/09 05:49:10;;;;;;;6.65;1.52;;;8.30;99.90;;;;;;5007345;28;20046;-74
2023/01/09 05:51:35;;;;;;;4.32;1.35;;;8.30;99.90;;;;;;5011517;28;20470;-74
2023/01/09 05:54:02;;;;;;;9.32;1.58;;;8.30;99.90;;;;;;5001465;28;20046;-74
2023/01/09 05:56:28;;;;;;;10.85;1.73;;;8.30;99.90;;;;;;5002856;28;20030;-74
2023/01/09 05:58:54;;;;;;;13.85;2.13;;;8.40;99.90;;;;;;5010570;28;20022;-74
2023/01/09 06:01:20;;;;;;;14.57;2.05;;;8.40;99.90;;;;;;5010350;28;20030;-74
2023/01/09 06:03:46;;;;;;;16.20;1.92;;;8.40;99.90;;;;;;5007709;28;20026;-74
2023/01/09 06:06:11;;;;;;;12.15;1.63;;;8.40;99.90;;;;;;5008098;28;20044;-74
2023/01/09 06:08:37;;;;;;;7.63;1.65;;;8.40;99.90;;;;;;5000133;28;20173;-74
2023/01/09 06:11:02;;;;;;;6.25;1.77;;;8.50;99.90;;;;;;5007679;28;20046;-74
2023/01/09 06:13:28;;;;;;;10.88;2.00;;;8.50;99.90;;;;;;5003601;28;20375;-74
2023/01/09 06:15:54;;;;;;;7.32;1.90;;;8.50;99.90;;;;;;5007069;28;20045;-74
2023/01/09 06:18:19;;;;;;;12.77;2.10;;;8.50;99.90;;;;;;5005622;28;20030;-74
2023/01/09 06:20:45;;;;;;;13.50;2.08;;;8.50;99.90;;;;;;5009056;28;20474;-74
2023/01/09 06:23:10;;;;;;;8.45;1.73;;;8.40;99.90;;;;;;5005031;28;20109;-74
2023/01/09 06:25:36;;;;;;;13.15;1.55;;;8.50;99.90;;;;;;5009714;28;20052;-74
2023/01/09 06:28:02;;;;;;;8.73;2.05;;;8.50;99.90;;;;;;4996196;28;20019;-74
2023/01/09 06:30:27;;;;;;;12.82;3.05;;;8.60;99.90;;;;;;4998576;28;20042;-74
2023/01/09 06:32:53;;;;;;;6.25;1.70;;;8.60;99.90;;;;;;5010007;28;20026;-74
2023/01/09 06:35:19;;;;;;;9.70;1.88;;;8.50;99.90;;;;;;4994521;28;20371;-74
2023/01/09 06:37:46;;;;;;;7.15;2.08;;;8.50;99.90;;;;;;4993486;28;20901;-74
2023/01/09 06:40:13;;;;;;;9.40;1.95;;;8.60;99.90;;;;;;5001326;28;20034;-74
2023/01/09 06:42:41;;;;;;;6.70;1.98;;;8.60;99.90;;;;;;5005993;28;20018;-74
2023/01/09 06:45:07;;;;;;;9.60;1.80;;;8.60;99.90;;;;;;5004191;28;20054;-74
2023/01/09 06:47:32;;;;;;;9.15;2.15;;;8.60;99.90;;;;;;4998912;28;20019;-74
2023/01/09 06:49:58;;;;;;;11.60;1.70;;;8.50;99.90;;;;;;4999045;28;20236;-74
2023/01/09 06:52:24;;;;;;;11.60;2.50;;;8.60;99.90;;;;;;5004799;28;20041;-77
2023/01/09 06:54:49;;;;;;;9.82;1.80;;;8.60;99.90;;;;;;4990354;28;20042;-74
2023/01/09 06:57:15;;;;;;;9.35;2.10;;;8.60;99.90;;;;;;5007701;28;20021;-73
2023/01/09 06:59:41;;;;;;;7.22;2.10;;;8.60;99.90;;;;;;5007716;28;20045;-74
2023/01/09 07:02:17;;;;;;;13.27;2.95;;;8.60;99.90;;;;;;5012408;28;20013;-74
2023/01/09 07:04:42;;;;;;;11.23;1.98;;;8.60;99.90;;;;;;4998263;28;20142;-74
2023/01/09 07:07:08;;;;;;;8.73;1.83;;;8.70;99.90;;;;;;5007669;28;20097;-74
2023/01/09 07:09:33;;;;;;;8.93;1.90;;;8.60;99.90;;;;;;4987045;28;20037;-74
2023/01/09 07:11:59;;;;;;;10.55;2.05;;;8.60;99.90;;;;;;5007650;28;20069;-74
2023/01/09 07:14:25;;;;;;;7.57;1.60;;;8.60;99.90;;;;;;5008781;28;20100;-74
2023/01/09 07:16:50;;;;;;;9.90;1.90;;;8.60;99.90;;;;;;5007077;28;20426;-74
2023/01/09 07:19:16;;;;;;;10.13;1.83;;;8.60;99.90;;;;;;5006241;28;20033;-74
2023/01/09 07:21:42;;;;;;;8.68;2.10;;;8.60;99.90;;;;;;5006556;28;20026;-74
2023/01/09 07:24:07;;;;;;;8.10;2.00;;;8.60;99.90;;;;;;5009498;28;20030;-74
2023/01/09 07:26:33;;;;;;;9.68;2.03;;;8.60;99.90;;;;;;4992686;28;20024;-73
2023/01/09 07:28:58;;;;;;;9.70;2.40;;;8.60;99.90;;;;;;5013082;28;20481;-74
2023/01/09 07:31:24;;;;;;;11.98;2.75;;;8.60;99.90;;;;;;5008883;28;20458;-73
2023/01/09 07:33:49;;;;;;;8.68;1.88;;;8.70;99.90;;;;;;5008924;28;20064;-74
2023/01/09 07:36:15;;;;;;;10.57;2.90;;;8.60;99.90;;;;;;5005697;28;20022;-73
2023/01/09 07:38:41;;;;;;;12.25;2.00;;;8.60;99.90;;;;;;5006715;28;20076;-74
2023/01/09 07:41:06;;;;;;;7.28;1.92;;;8.60;99.90;;;;;;4994051;28;20018;-74
2023/01/09 07:43:32;;;;;;;4.32;1.40;;;8.60;99.90;;;;;;5003217;28;20029;-74
2023/01/09 07:45:58;;;;;;;9.27;2.42;;;8.60;99.90;;;;;;5011012;28;20049;-74
2023/01/09 07:48:23;;;;;;;5.35;2.17;;;8.60;99.90;;;;;;5009706;28;20022;-74
2023/01/09 07:50:49;;;;;;;9.13;2.33;;;8.70;99.90;;;;;;5007524;28;20028;-73
2023/01/09 07:53:15;;;;;;;7.40;2.25;;;8.70;99.90;;;;;;5006871;28;20493;-73
2023/01/09 07:55:42;;;;;;;11.88;2.92;;;8.70;99.90;;;;;;5013388;28;20109;-73
2023/01/09 07:58:08;;;;;;;9.90;2.50;;;8.80;99.90;;;;;;5008571;28;20096;-73
2023/01/09 08:00:33;;;;;;;12.15;2.45;;;8.70;99.90;;;;;;5010057;28;20137;-74
2023/01/09 08:02:59;;;;;;;10.93;2.70;;;8.80;99.90;;;;;;5007071;28;20034;-74
2023/01/09 08:05:24;;;;;;;7.40;1.92;;;8.80;99.90;;;;;;5012521;28;20030;-74
2023/01/09 08:07:50;;;;;;;11.75;3.22;;;8.90;99.90;;;;;;5007172;28;20461;-72
2023/01/09 08:10:18;;;;;;;11.80;2.55;;;8.80;99.90;;;;;;5009437;28;20449;-74
2023/01/09 08:12:47;;;;;;;6.95;2.00;;;8.80;99.90;;;;;;5007172;28;20022;-74
2023/01/09 08:15:14;;;;;;;8.13;2.30;;;8.90;99.90;;;;;;5004172;28;20045;-73
2023/01/09 08:17:42;;;;;;;4.70;2.05;;;8.90;99.90;;;;;;5009306;28;20022;-73
2023/01/09 08:20:10;;;;;;;8.52;2.47;;;8.80;99.90;;;;;;5007163;28;20462;-73
2023/01/09 08:22:36;;;;;;;11.60;2.15;;;8.90;99.90;;;;;;5008567;28;20057;-74
2023/01/09 08:25:01;;;;;;;6.38;1.85;;;8.80;99.90;;;;;;5006908;28;20069;-74
2023/01/09 08:27:27;;;;;;;5.82;1.88;;;8.90;99.90;;;;;;5006951;28;20027;-73
2023/01/09 08:29:53;;;;;;;3.55;1.83;;;8.90;99.90;;;;;;5012258;28;20042;-73
2023/01/09 08:32:18;;;;;;;7.53;2.08;;;8.90;99.90;;;;;;5007909;28;20074;-74
2023/01/09 08:34:44;;;;;;;8.10;2.20;;;8.90;99.90;;;;;;5006495;28;20025;-73
2023/01/09 08:37:09;;;;;;;5.72;1.83;;;8.90;99.90;;;;;;5008442;28;20029;-73
2023/01/09 08:39:35;;;;;;;7.45;1.85;;;8.90;99.90;;;;;;5007746;28;20088;-73
2023/01/09 08:47:32;;;;;;;7.95;2.17;;;8.90;99.90;;;;;;5008565;28;20040;-73
2023/01/09 08:49:59;;;;;;;5.68;1.63;;;8.90;99.90;;;;;;5005523;28;20120;-73
2023/01/09 08:52:25;;;;;;;3.78;1.15;;;8.90;99.90;;;;;;5005275;28;20058;-74
2023/01/09 08:54:50;;;;;;;6.10;1.50;;;8.80;99.90;;;;;;5006514;28;20089;-73
2023/01/09 08:57:16;;;;;;;9.65;2.03;;;8.90;99.90;;;;;;5006570;28;20529;-73
2023/01/09 08:59:41;;;;;;;8.18;1.80;;;8.90;99.90;;;;;;5004149;28;20095;-73
2023/01/09 09:02:08;;;;;;;7.65;1.52;;;8.90;99.90;;;;;;5011193;28;20454;-73
2023/01/09 09:04:34;;;;;;;3.72;1.60;;;8.90;99.90;;;;;;5002491;28;20158;-73
2023/01/09 09:06:59;;;;;;;6.63;2.17;;;8.90;99.90;;;;;;5008457;28;20072;-73
2023/01/09 09:09:25;;;;;;;6.15;1.45;;;9.00;99.90;;;;;;5005385;28;20438;-73
2023/01/09 09:11:50;;;;;;;8.57;1.65;;;9.00;99.90;;;;;;5006359;28;20041;-73
2023/01/09 09:17:00;;;;;;;8.25;1.85;;;9.00;99.90;;;;;;5003823;28;20045;-70
2023/01/09 09:19:26;;;;;;;8.63;2.00;;;9.00;99.90;;;;;;5007529;28;20424;-71
2023/01/09 09:21:51;;;;;;;6.50;1.73;;;9.00;99.90;;;;;;5002749;28;20396;-71
2023/01/09 09:24:17;;;;;;;10.25;2.15;;;9.10;99.90;;;;;;5004280;28;20033;-70
2023/01/09 09:26:43;;;;;;;8.15;1.65;;;9.00;99.90;;;;;;5007577;28;20458;-69
2023/01/09 09:29:09;;;;;;;7.35;1.58;;;9.00;99.90;;;;;;5005001;28;20099;-69
2023/01/09 09:31:37;;;;;;;5.63;1.50;;;9.10;99.90;;;;;;5002666;28;20029;-69
2023/01/09 09:34:04;;;;;;;5.68;1.60;;;9.10;99.90;;;;;;5009536;28;20042;-69
2023/01/09 09:36:30;;;;;;;5.53;1.63;;;9.10;99.90;;;;;;5002009;28;20026;-69
2023/01/09 09:38:56;;;;;;;8.77;1.92;;;9.10;99.90;;;;;;5009091;28;20026;-69
2023/01/09 09:44:42;;;;;;;7.00;1.63;;;9.20;99.90;;;;;;5003068;28;20145;-68
2023/01/09 09:47:29;;;;;;;13.95;1.70;;;9.10;99.90;;;;;;5006966;28;20088;-68
2023/01/09 09:50:18;;;;;;;7.57;1.40;;;9.10;99.90;;;;;;5003506;28;20088;-68
2023/01/09 09:52:48;;;;;;;10.50;1.92;;;9.20;99.90;;;;;;5006221;28;20048;-69
2023/01/09 09:55:29;;;;;;;6.55;1.25;;;9.20;99.90;;;;;;5023520;28;20088;-69
2023/01/09 09:57:59;;;;;;;7.43;1.80;;;9.20;99.90;;;;;;5008871;28;20030;-68
2023/01/09 10:00:25;;;;;;;6.53;1.95;;;9.20;99.90;;;;;;5007604;28;20097;-68
2023/01/09 10:03:09;;;;;;;9.35;1.80;;;9.20;99.90;;;;;;5006647;28;20022;-69
2023/01/09 10:05:39;;;;;;;4.40;1.70;;;9.20;99.90;;;;;;5007005;28;20036;-69
2023/01/09 10:08:21;;;;;;;8.52;1.50;;;9.20;99.90;;;;;;5002791;28;20424;-68
2023/01/09 10:10:52;;;;;;;7.32;1.55;;;9.20;99.90;;;;;;4992471;28;20121;-68
2023/01/09 10:16:23;;;;;;;7.30;1.75;;;9.20;99.90;;;;;;5005444;28;20045;-68
2023/01/09 10:19:22;;;;;;;5.03;1.48;;;9.20;99.90;;;;;;5011267;28;20121;-68
2023/01/09 10:22:05;;;;;;;7.80;2.40;;;9.20;99.90;;;;;;5010326;28;20049;-68
2023/01/09 10:24:53;;;;;;;6.78;1.92;;;9.30;99.90;;;;;;4999723;28;20124;-69
2023/01/09 10:27:26;;;;;;;8.35;2.28;;;9.30;99.90;;;;;;5005323;28;20030;-69
2023/01/09 10:30:01;;;;;;;7.20;1.88;;;9.20;99.90;;;;;;5000961;28;20506;-68
2023/01/09 10:33:10;;;;;;;8.43;1.77;;;9.30;99.90;;;;;;5000570;28;20466;-69
2023/01/09 10:35:54;;;;;;;8.27;1.73;;;9.40;99.90;;;;;;4981910;28;20049;-68
2023/01/09 10:38:25;;;;;;;7.80;1.92;;;9.30;99.90;;;;;;4982821;28;20030;-68
2023/01/09 10:41:02;;;;;;;10.88;1.73;;;9.30;99.90;;;;;;5005824;28;20065;-68
2023/01/09 10:43:45;;;;;;;11.05;2.00;;;9.40;99.90;;;;;;5005941;28;20474;-69
2023/01/09 10:46:22;;;;;;;6.72;2.17;;;9.30;99.90;;;;;;5000012;28;20100;-68
2023/01/09 10:48:52;;;;;;;4.05;1.27;;;9.30;99.90;;;;;;4992455;28;20034;-68
2023/01/09 10:51:20;;;;;;;5.25;1.70;;;9.30;99.90;;;;;;5004980;28;20517;-68
2023/01/09 10:53:50;;;;;;;3.90;1.88;;;9.30;99.90;;;;;;5007489;28;20087;-70
2023/01/09 10:56:26;;;;;;;7.80;1.60;;;9.30;99.90;;;;;;5000273;28;20038;-69
2023/01/09 10:58:53;;;;;;;4.68;1.50;;;9.30;99.90;;;;;;5007787;28;20053;-68
2023/01/09 11:01:29;;;;;;;4.82;1.42;;;9.30;99.90;;;;;;4998507;28;20393;-68
2023/01/09 11:03:57;;;;;;;7.03;1.45;;;9.30;99.90;;;;;;5000045;28;20033;-68
2023/01/09 11:06:39;;;;;;;4.30;1.70;;;9.30;99.90;;;;;;5001976;28;20046;-68
2023/01/09 11:09:05;;;;;;;3.88;1.48;;;9.20;99.90;;;;;;5010272;28;20041;-68
2023/01/09 11:11:36;;;;;;;6.13;1.40;;;9.40;99.90;;;;;;5001499;28;20018;-69
2023/01/09 11:14:19;;;;;;;4.47;1.65;;;9.30;99.90;;;;;;5000378;28;20037;-68
2023/01/09 11:16:57;;;;;;;4.32;1.30;;;9.30;99.90;;;;;;5003545;28;20117;-68
2023/01/09 11:19:23;;;;;;;6.45;1.90;;;9.40;99.90;;;;;;5005940;28;20036;-68
2023/01/09 11:21:49;;;;;;;7.55;2.08;;;9.40;99.90;;;;;;4997413;28;20025;-68
2023/01/09 11:24:19;;;;;;;4.63;1.77;;;9.40;99.90;;;;;;5007672;28;20022;-68
2023/01/09 11:26:47;;;;;;;9.35;1.77;;;9.30;99.90;;;;;;4983445;28;20036;-68
2023/01/09 11:29:18;;;;;;;7.32;2.00;;;9.40;99.90;;;;;;4998750;28;20031;-68
2023/01/09 11:33:16;;;;;;;6.00;2.38;;;9.40;99.90;;;;;;5085865;28;20388;-67
2023/01/09 11:35:58;;;;;;;8.75;2.42;;;9.50;99.90;;;;;;5064301;28;20056;-67
2023/01/09 11:38:23;;;;;;;8.20;2.08;;;9.50;99.90;;;;;;5072263;28;20109;-67
2023/01/09 11:40:59;;;;;;;4.80;1.92;;;9.50;99.90;;;;;;5064617;28;20064;-67
2023/01/09 11:43:37;;;;;;;7.55;2.50;;;9.30;99.90;;;;;;5072862;28;20013;-66
2023/01/09 11:46:06;;;;;;;4.05;2.20;;;9.40;99.90;;;;;;5067679;28;20420;-67
2023/01/09 11:48:38;;;;;;;4.70;3.38;;;9.40;99.90;;;;;;5064916;28;20029;-66
2023/01/09 11:51:26;;;;;;;6.80;2.72;;;9.30;99.90;;;;;;5064508;28;20075;-66
2023/01/09 11:54:22;;;;;;;5.05;2.42;;;9.30;99.90;;;;;;5069091;28;20086;-68
2023/01/09 11:56:49;;;;;;;7.72;2.83;;;9.30;99.90;;;;;;5067454;28;20040;-67
2023/01/09 11:59:19;;;;;;;9.05;2.33;;;9.30;99.90;;;;;;5072571;28;20013;-68
2023/01/09 12:02:20;;;;;;;5.80;2.30;;;9.30;99.90;;;;;;5070866;28;20040;-68
2023/01/09 12:05:09;;;;;;;9.63;2.72;;;9.30;99.90;;;;;;5071551;28;20047;-68
2023/01/09 12:07:35;;;;;;;7.85;2.70;;;9.40;99.90;;;;;;5060082;28;20590;-68
2023/01/09 12:10:44;;;;;;;7.07;2.83;;;9.40;99.90;;;;;;5065700;28;20056;-68
2023/01/09 12:13:12;;;;;;;9.65;3.10;;;9.40;99.90;;;;;;5069508;28;20504;-68
2023/01/09 12:15:44;;;;;;;5.38;2.88;;;9.50;99.90;;;;;;5072861;28;20432;-68
2023/01/09 12:18:10;;;;;;;8.20;2.55;;;9.50;99.90;;;;;;5067354;28;20029;-68
2023/01/09 12:20:39;;;;;;;7.68;2.80;;;9.50;99.90;;;;;;5070702;28;20106;-68
2023/01/09 12:23:48;;;;;;;6.57;2.55;;;9.60;99.90;;;;;;5061284;28;20094;-68
2023/01/09 12:26:18;;;;;;;8.02;2.65;;;9.70;99.90;;;;;;5072666;28;20087;-69
2023/01/09 12:28:56;;;;;;;5.75;2.75;;;9.70;99.90;;;;;;5061538;28;20027;-68
2023/01/09 12:31:44;;;;;;;4.82;2.78;;;9.80;99.90;;;;;;5069159;28;20045;-68
2023/01/09 12:34:37;;;;;;;8.05;2.50;;;9.70;99.90;;;;;;5064161;28;20079;-68
2023/01/09 12:37:39;;;;;;;7.95;2.45;;;9.70;99.90;;;;;;5068047;28;20029;-68
2023/01/09 12:40:14;;;;;;;9.98;2.60;;;9.70;99.90;;;;;;5070505;28;20020;-68
2023/01/09 12:43:34;;;;;;;4.63;2.50;;;9.80;99.90;;;;;;5061094;28;20025;-68
2023/01/09 12:46:15;;;;;;;7.30;2.55;;;9.80;99.90;;;;;;5056576;28;20098;-68
2023/01/09 12:48:59;;;;;;;7.97;3.22;;;9.80;99.90;;;;;;5051504;28;20064;-68
2023/01/09 12:51:31;;;;;;;7.95;3.35;;;9.90;99.90;;;;;;5052987;28;20454;-68
2023/01/09 12:54:02;;;;;;;4.43;1.98;;;9.80;99.90;;;;;;5058838;28;20109;-68
2023/01/09 12:56:33;;;;;;;10.05;2.60;;;9.80;99.90;;;;;;5050671;28;20542;-68
2023/01/09 12:59:29;;;;;;;5.93;2.50;;;9.80;99.90;;;;;;5056225;28;20028;-68
2023/01/09 13:02:26;;;;;;;4.47;2.38;;;9.80;99.90;;;;;;5046598;28;20029;-68
2023/01/09 13:04:59;;;;;;;6.78;2.50;;;9.70;99.90;;;;;;5043621;28;20501;-68
2023/01/09 13:07:48;;;;;;;5.57;2.35;;;9.70;99.90;;;;;;5055609;28;20063;-68
2023/01/09 13:10:24;;;;;;;5.93;2.63;;;9.70;99.90;;;;;;5053785;28;20522;-68
2023/01/09 13:12:51;;;;;;;5.38;2.42;;;9.60;99.90;;;;;;5052069;28;20059;-70
2023/01/09 13:16:00;;;;;;;4.75;2.90;;;9.70;99.90;;;;;;5051413;28;20021;-68
2023/01/09 13:19:10;;;;;;;7.63;3.00;;;9.60;99.90;;;;;;5050004;28;20362;-68
2023/01/09 13:21:37;;;;;;;8.02;2.85;;;9.60;99.90;;;;;;5048098;28;20333;-69
2023/01/09 13:24:10;;;;;;;6.95;3.17;;;9.70;99.90;;;;;;5051610;28;20029;-69
2023/01/09 13:26:55;;;;;;;6.30;2.65;;;9.60;99.90;;;;;;5053079;28;20040;-68
2023/01/09 13:29:37;;;;;;;5.45;3.03;;;9.50;99.90;;;;;;5050302;28;20476;-69
2023/01/09 13:32:19;;;;;;;9.50;3.67;;;9.60;99.90;;;;;;5059355;28;20338;-69